Time,TemperatureF,DewpointF,PressureIn,WindDirection,WindDirectionDegrees,WindSpeedMPH,WindSpeedGustMPH,Humidity,HourlyPrecipIn,Conditions,Clouds,dailyrainin,SoftwareType,DateUTC
2013-10-10 00:11:00,55.0,40.0,-100.00,NNE,30,3.0,5.0,56,-99.99,,,-99.99,,2013-10-10 07:11:00,
2013-10-10 01:11:00,52.0,42.0,-100.00,NW,305,3.0,5.0,68,-99.99,,,-99.99,,2013-10-10 08:11:00,
2013-10-10 02:11:00,50.0,42.0,-100.00,SE,125,1.0,2.0,73,-99.99,,,-99.99,,2013-10-10 09:11:00,
2013-10-10 03:12:00,48.0,43.0,-100.00,West,275,2.0,3.0,82,-99.99,,,-99.99,,2013-10-10 10:12:00,
2013-10-10 04:12:00,49.0,43.0,-100.00,NW,305,5.0,6.0,79,-99.99,,,-99.99,,2013-10-10 11:12:00,
2013-10-10 05:11:00,48.0,43.0,-100.00,NW,305,5.0,6.0,82,-99.99,,,-99.99,,2013-10-10 12:11:00,
2013-10-10 06:11:00,49.0,44.0,-100.00,WNW,295,3.0,5.0,82,-99.99,,,-99.99,,2013-10-10 13:11:00,
2013-10-10 07:11:00,45.0,42.0,-100.00,East,95,0.0,2.0,89,-99.99,,,-99.99,,2013-10-10 14:11:00,
2013-10-10 08:11:00,41.0,40.0,-100.00,NNW,345,2.0,6.0,96,-99.99,,,-99.99,,2013-10-10 15:11:00,
2013-10-10 09:13:00,43.0,41.0,-100.00,NW,320,2.0,6.0,92,-99.99,,,-99.99,,2013-10-10 16:13:00,
2013-10-10 10:12:00,49.0,40.0,-100.00,NNW,330,1.0,3.0,70,-99.99,,,-99.99,,2013-10-10 17:12:00,
2013-10-10 11:12:00,57.0,36.0,-100.00,South,175,2.0,3.0,45,-99.99,,,-99.99,,2013-10-10 18:12:00,
2013-10-10 12:11:00,59.0,33.0,-100.00,North,360,6.0,8.0,37,-99.99,,,-99.99,,2013-10-10 19:11:00,
2013-10-10 13:12:00,63.0,33.0,-100.00,NW,325,3.0,6.0,32,-99.99,,,-99.99,,2013-10-10 20:12:00,
2013-10-10 14:12:00,66.0,34.0,-100.00,East,100,5.0,8.0,30,-99.99,,,-99.99,,2013-10-10 21:12:00,
2013-10-10 15:13:00,66.0,32.0,-100.00,North,5,6.0,9.0,28,-99.99,,,-99.99,,2013-10-10 22:13:00,
2013-10-10 16:12:00,67.0,31.0,-100.00,SW,215,3.0,6.0,26,-99.99,,,-99.99,,2013-10-10 23:12:00,
2013-10-10 17:11:00,67.0,32.0,-100.00,WSW,250,1.0,6.0,27,-99.99,,,-99.99,,2013-10-11 00:11:00,
2013-10-10 18:11:00,65.0,34.0,-100.00,North,360,3.0,6.0,31,-99.99,,,-99.99,,2013-10-11 01:11:00,
2013-10-10 19:12:00,62.0,35.0,-100.00,NNW,340,14.0,17.0,36,-99.99,,,-99.99,,2013-10-11 02:12:00,
2013-10-10 20:11:00,59.0,37.0,-100.00,NW,325,9.0,13.0,43,-99.99,,,-99.99,,2013-10-11 03:11:00,
2013-10-10 21:13:00,58.0,36.0,-100.00,NW,315,12.0,17.0,43,-99.99,,,-99.99,,2013-10-11 04:13:00,
2013-10-10 22:13:00,54.0,36.0,-100.00,NW,305,7.0,10.0,50,-99.99,,,-99.99,,2013-10-11 05:13:00,
2013-10-10 23:12:00,54.0,37.0,-100.00,NW,310,9.0,13.0,52,-99.99,,,-99.99,,2013-10-11 06:12:00,